Time;durP1;ratioP1;P1;durP2;ratioP2;P2;SDS_P1;SDS_P2;PMS_P1;PMS_P2;Temp;Humidity;BMP_temperature;BMP_pressure;BME280_temperature;BME280_humidity;BME280_pressure;Samples;Min_cycle;Max_cycle;Signal;HPM_P1;HPM_P2
2022/11/26 00:02:23;;;;;;;22.05;9.10;;;6.30;99.90;;;;;;5068098;28;20115;-62
2022/11/26 00:04:50;;;;;;;19.48;8.50;;;6.30;99.90;;;;;;5052313;28;20036;-62
2022/11/26 00:07:22;;;;;;;18.60;8.38;;;6.30;99.90;;;;;;5050146;28;20082;-62
2022/11/26 00:09:49;;;;;;;23.50;9.35;;;6.30;99.90;;;;;;5053495;28;20040;-62
2022/11/26 00:12:21;;;;;;;20.05;9.07;;;6.30;99.90;;;;;;5070139;28;20040;-62
2022/11/26 00:14:47;;;;;;;23.15;8.45;;;6.30;99.90;;;;;;5069822;28;20045;-62
2022/11/26 00:17:13;;;;;;;21.90;8.93;;;6.30;99.90;;;;;;5070994;28;20032;-62
2022/11/26 00:19:43;;;;;;;20.92;8.60;;;6.30;99.90;;;;;;5070964;28;20556;-62
2022/11/26 00:22:23;;;;;;;17.05;8.73;;;6.30;99.90;;;;;;5067856;28;20035;-62
2022/11/26 00:24:49;;;;;;;19.13;8.38;;;6.30;99.90;;;;;;5070830;28;20032;-62
2022/11/26 00:27:15;;;;;;;26.92;9.85;;;6.20;99.90;;;;;;5080900;28;20037;-62
2022/11/26 00:29:40;;;;;;;16.63;8.48;;;6.20;99.90;;;;;;5076934;28;20540;-62
2022/11/26 00:32:18;;;;;;;17.10;8.43;;;6.20;99.90;;;;;;5080016;28;20086;-62
2022/11/26 00:34:44;;;;;;;24.90;9.77;;;6.20;99.90;;;;;;5055501;28;20516;-62
2022/11/26 00:37:30;;;;;;;22.42;8.90;;;6.20;99.90;;;;;;5085912;28;20043;-62
2022/11/26 00:39:56;;;;;;;18.50;8.52;;;6.20;99.90;;;;;;5049155;28;20126;-62
2022/11/26 00:42:22;;;;;;;18.70;8.73;;;6.10;99.90;;;;;;5068077;28;20060;-62
2022/11/26 00:44:48;;;;;;;19.42;10.00;;;6.10;99.90;;;;;;5090973;28;20122;-62
2022/11/26 00:47:13;;;;;;;21.90;8.88;;;6.10;99.90;;;;;;5053904;28;20036;-61
2022/11/26 00:49:39;;;;;;;19.70;10.27;;;6.10;99.90;;;;;;5084017;28;20474;-62
2022/11/26 00:52:29;;;;;;;20.10;8.90;;;6.10;99.90;;;;;;5071103;28;20115;-62
2022/11/26 00:54:55;;;;;;;21.08;8.93;;;6.10;99.90;;;;;;5045750;28;20060;-62
2022/11/26 00:57:20;;;;;;;22.42;8.95;;;6.10;99.90;;;;;;5079920;28;20064;-62
2022/11/26 00:59:46;;;;;;;21.00;9.73;;;6.00;99.90;;;;;;5070688;28;20040;-62
2022/11/26 01:02:11;;;;;;;21.48;9.70;;;6.00;99.90;;;;;;5072433;28;20087;-62
2022/11/26 01:04:37;;;;;;;15.05;8.68;;;6.10;99.90;;;;;;5075482;28;20050;-62
2022/11/26 01:07:02;;;;;;;18.33;7.90;;;6.00;99.90;;;;;;5078278;28;20033;-62
2022/11/26 01:09:28;;;;;;;23.35;9.30;;;6.00;99.90;;;;;;5068178;28;20036;-62
2022/11/26 01:11:54;;;;;;;20.40;9.68;;;6.00;99.90;;;;;;5069898;28;20029;-62
2022/11/26 01:14:20;;;;;;;20.90;9.18;;;6.00;99.90;;;;;;5075201;28;20028;-62
2022/11/26 01:16:47;;;;;;;18.35;8.88;;;6.00;99.90;;;;;;5057774;28;20078;-62
2022/11/26 01:19:13;;;;;;;20.50;9.38;;;6.00;99.90;;;;;;5050776;28;20072;-62
2022/11/26 01:21:39;;;;;;;18.77;8.65;;;6.00;99.90;;;;;;5069706;28;20036;-62
2022/11/26 01:24:05;;;;;;;18.75;9.40;;;5.90;99.90;;;;;;5075245;28;20036;-62
2022/11/26 01:26:42;;;;;;;19.00;9.30;;;5.90;99.90;;;;;;5073410;28;20036;-62
2022/11/26 01:29:16;;;;;;;17.40;8.73;;;5.90;99.90;;;;;;5073965;28;20039;-62
2022/11/26 01:31:42;;;;;;;20.00;8.90;;;5.90;99.90;;;;;;5087076;28;20036;-62
2022/11/26 01:34:07;;;;;;;21.02;10.05;;;5.80;99.90;;;;;;5076441;28;20028;-62
2022/11/26 01:36:35;;;;;;;18.52;9.10;;;5.80;99.90;;;;;;5081435;28;20033;-62
2022/11/26 01:39:21;;;;;;;17.60;9.93;;;5.80;99.90;;;;;;5084829;28;20050;-62
2022/11/26 01:42:06;;;;;;;17.75;8.93;;;5.80;99.90;;;;;;5068827;28;20127;-62
2022/11/26 01:44:34;;;;;;;23.50;10.15;;;5.80;99.90;;;;;;5066181;28;20047;-61
2022/11/26 01:47:01;;;;;;;19.08;9.95;;;5.80;99.90;;;;;;5077120;28;20094;-62
2022/11/26 01:49:28;;;;;;;23.33;9.75;;;5.70;99.90;;;;;;5071771;28;20390;-62
2022/11/26 01:52:03;;;;;;;15.38;8.13;;;5.70;99.90;;;;;;5068027;28;20037;-62
2022/11/26 01:54:31;;;;;;;21.45;9.25;;;5.70;99.90;;;;;;5067101;28;20148;-61
2022/11/26 01:57:07;;;;;;;18.45;8.82;;;5.60;99.90;;;;;;5072431;28;20066;-61
2022/11/26 01:59:37;;;;;;;15.98;8.57;;;5.60;99.90;;;;;;5070103;28;20422;-61
2022/11/26 02:02:03;;;;;;;13.88;7.03;;;5.60;99.90;;;;;;5069503;28;20112;-61
2022/11/26 02:04:35;;;;;;;17.13;8.48;;;5.60;99.90;;;;;;5081848;28;20111;-61
2022/11/26 02:07:02;;;;;;;13.32;8.13;;;5.60;99.90;;;;;;5054256;28;20036;-61
2022/11/26 02:09:29;;;;;;;17.48;9.40;;;5.60;99.90;;;;;;5073241;28;20044;-61
2022/11/26 02:11:55;;;;;;;18.02;8.68;;;5.60;99.90;;;;;;5076035;28;20040;-61
2022/11/26 02:17:33;;;;;;;19.75;8.45;;;5.60;99.90;;;;;;5125628;27;20379;-61
2022/11/26 02:20:25;;;;;;;14.20;9.75;;;5.50;99.90;;;;;;5101248;28;20048;-61
2022/11/26 02:23:08;;;;;;;17.02;8.82;;;5.50;99.90;;;;;;5099228;28;20036;-61
2022/11/26 02:26:05;;;;;;;21.50;9.38;;;5.50;99.90;;;;;;5096819;28;20115;-61
2022/11/26 02:28:55;;;;;;;13.38;8.20;;;5.50;99.90;;;;;;5072423;28;20100;-62
2022/11/26 02:31:39;;;;;;;22.63;9.93;;;5.50;99.90;;;;;;5093484;28;20090;-60
2022/11/26 02:34:20;;;;;;;16.10;9.60;;;5.50;99.90;;;;;;5104514;28;20036;-62
2022/11/26 02:37:04;;;;;;;18.83;10.00;;;5.50;99.90;;;;;;5096426;28;20499;-60
2022/11/26 02:39:29;;;;;;;19.17;9.68;;;5.50;99.90;;;;;;5102719;28;20032;-61
2022/11/26 02:42:01;;;;;;;19.27;10.63;;;5.40;99.90;;;;;;5098657;28;20040;-61
2022/11/26 02:44:43;;;;;;;17.90;9.93;;;5.40;99.90;;;;;;5104076;28;20047;-61
2022/11/26 02:47:11;;;;;;;16.23;8.95;;;5.40;99.90;;;;;;5090343;28;20036;-59
2022/11/26 02:49:39;;;;;;;14.98;7.68;;;5.40;99.90;;;;;;5104070;28;20039;-60
2022/11/26 02:52:06;;;;;;;14.27;8.13;;;5.40;99.90;;;;;;5102443;28;20071;-60
2022/11/26 02:54:34;;;;;;;15.63;8.70;;;5.30;99.90;;;;;;5105667;28;20085;-61
2022/11/26 02:57:02;;;;;;;16.65;7.63;;;5.30;99.90;;;;;;5093603;28;20048;-60
2022/11/26 02:59:29;;;;;;;19.63;7.65;;;5.20;99.90;;;;;;5098227;28;20042;-61
2022/11/26 03:01:59;;;;;;;24.10;8.57;;;5.20;99.90;;;;;;5099761;28;20075;-60
2022/11/26 03:04:32;;;;;;;21.52;7.93;;;5.10;99.90;;;;;;5098739;28;20036;-61
2022/11/26 03:07:03;;;;;;;41.90;9.05;;;5.10;99.90;;;;;;5098972;28;20077;-60
2022/11/26 03:09:57;;;;;;;34.70;8.88;;;5.00;99.90;;;;;;5106874;28;20032;-61
2022/11/26 03:12:23;;;;;;;20.80;8.60;;;5.00;99.90;;;;;;5099779;28;20101;-61
2022/11/26 03:14:49;;;;;;;11.85;7.70;;;5.00;99.90;;;;;;5101098;28;20435;-59
2022/11/26 03:17:16;;;;;;;15.90;7.90;;;5.00;99.90;;;;;;5107545;28;20085;-61
2022/11/26 03:19:42;;;;;;;12.10;7.43;;;5.00;99.90;;;;;;5108165;28;20537;-60
2022/11/26 03:22:08;;;;;;;13.18;8.23;;;4.90;99.90;;;;;;5103472;28;20047;-60
2022/11/26 03:24:34;;;;;;;14.93;8.98;;;4.90;99.90;;;;;;5100599;28;20032;-60
2022/11/26 03:26:59;;;;;;;17.15;9.05;;;4.90;99.90;;;;;;5097788;28;20513;-60
2022/11/26 03:29:25;;;;;;;17.23;8.95;;;4.90;99.90;;;;;;5085729;28;20036;-60
2022/11/26 03:31:51;;;;;;;19.50;10.48;;;4.90;99.90;;;;;;5091490;28;20032;-60
2022/11/26 03:34:16;;;;;;;24.83;9.80;;;4.90;99.90;;;;;;5091269;28;20040;-60
2022/11/26 03:36:42;;;;;;;19.35;10.10;;;4.90;99.90;;;;;;5082249;28;20068;-60
2022/11/26 03:39:07;;;;;;;13.20;9.15;;;4.90;99.90;;;;;;5091366;28;20050;-60
2022/11/26 03:41:33;;;;;;;14.88;8.55;;;4.90;99.90;;;;;;5078385;28;20033;-60
2022/11/26 03:43:59;;;;;;;11.93;8.23;;;4.90;99.90;;;;;;5084393;28;20413;-59
2022/11/26 03:46:24;;;;;;;18.77;9.93;;;4.90;99.90;;;;;;5091265;28;20032;-61
2022/11/26 03:48:50;;;;;;;15.13;8.88;;;4.90;99.90;;;;;;5085941;28;20481;-60
2022/11/26 03:51:16;;;;;;;14.35;8.57;;;4.90;99.90;;;;;;5087469;28;20047;-60
2022/11/26 03:53:41;;;;;;;13.70;8.60;;;4.90;99.90;;;;;;5082368;28;20115;-60
2022/11/26 03:56:07;;;;;;;16.83;8.88;;;4.90;99.90;;;;;;5085467;28;20044;-61
2022/11/26 03:58:34;;;;;;;14.05;8.02;;;4.90;99.90;;;;;;5088834;28;20486;-61
2022/11/26 04:01:00;;;;;;;21.92;10.30;;;4.80;99.90;;;;;;5093118;28;20044;-61
2022/11/26 04:03:25;;;;;;;18.98;11.35;;;4.80;99.90;;;;;;5090543;28;20684;-61
2022/11/26 04:05:51;;;;;;;24.70;10.60;;;4.90;99.90;;;;;;5091928;28;20119;-61
2022/11/26 04:08:16;;;;;;;17.58;10.35;;;4.90;99.90;;;;;;5090211;28;20549;-59
2022/11/26 04:10:42;;;;;;;24.15;12.15;;;4.90;99.90;;;;;;5069691;28;20041;-59
2022/11/26 04:13:08;;;;;;;22.35;12.15;;;4.90;99.90;;;;;;5065271;28;20053;-61
2022/11/26 04:15:34;;;;;;;28.50;11.68;;;4.90;99.90;;;;;;5088781;28;20598;-61
2022/11/26 04:17:59;;;;;;;24.65;11.52;;;4.90;99.90;;;;;;5086341;28;21120;-60
2022/11/26 04:20:25;;;;;;;26.05;12.20;;;5.00;99.90;;;;;;5080993;28;20032;-61
2022/11/26 04:22:51;;;;;;;47.20;13.93;;;5.00;99.90;;;;;;5091152;28;20031;-61
2022/11/26 04:25:16;;;;;;;34.75;12.80;;;5.00;99.90;;;;;;5086446;28;20148;-59
2022/11/26 04:27:42;;;;;;;41.35;13.15;;;5.00;99.90;;;;;;5075196;28;20710;-60
2022/11/26 04:30:08;;;;;;;43.20;13.75;;;5.10;99.90;;;;;;5077980;28;20494;-60
2022/11/26 04:32:35;;;;;;;25.02;12.05;;;5.10;99.90;;;;;;5088399;28;20027;-60
2022/11/26 04:35:01;;;;;;;33.63;12.15;;;5.10;99.90;;;;;;5092104;28;20494;-60
2022/11/26 04:37:26;;;;;;;50.72;13.35;;;5.10;99.90;;;;;;5086652;28;20093;-59
2022/11/26 04:39:52;;;;;;;76.00;14.57;;;5.10;99.90;;;;;;5088785;28;20055;-60
2022/11/26 04:42:17;;;;;;;62.22;13.90;;;5.10;99.90;;;;;;5086805;28;20036;-61
2022/11/26 04:44:43;;;;;;;51.42;12.95;;;5.10;99.90;;;;;;5090921;28;20444;-60
2022/11/26 04:47:09;;;;;;;72.63;13.52;;;5.10;99.90;;;;;;5082441;28;20059;-60
2022/11/26 04:49:34;;;;;;;42.35;12.48;;;5.20;99.90;;;;;;5091104;28;20032;-60
2022/11/26 04:52:00;;;;;;;59.00;13.40;;;5.10;99.90;;;;;;5091690;28;20046;-59
2022/11/26 04:54:25;;;;;;;53.63;11.52;;;5.10;99.90;;;;;;5085018;28;20068;-59
2022/11/26 04:56:51;;;;;;;57.63;11.90;;;5.10;99.90;;;;;;5089138;28;20048;-61
2022/11/26 04:59:16;;;;;;;53.72;11.15;;;5.10;99.90;;;;;;5079945;28;20047;-61
2022/11/26 05:01:42;;;;;;;69.07;12.65;;;5.10;99.90;;;;;;5088995;28;20090;-60
2022/11/26 05:04:08;;;;;;;53.38;11.57;;;5.10;99.90;;;;;;5084767;28;20040;-59
2022/11/26 05:06:33;;;;;;;71.20;11.95;;;5.00;99.90;;;;;;5084114;28;20051;-59
2022/11/26 05:08:59;;;;;;;56.25;11.70;;;5.00;99.90;;;;;;5078754;28;20039;-61
2022/11/26 05:11:25;;;;;;;51.80;11.93;;;5.00;99.90;;;;;;5081263;28;20037;-61
2022/11/26 05:13:50;;;;;;;43.00;11.52;;;5.00;99.90;;;;;;5085804;28;20035;-59
2022/11/26 05:16:16;;;;;;;39.60;10.90;;;5.00;99.90;;;;;;5092031;28;20414;-61
2022/11/26 05:18:42;;;;;;;58.55;11.45;;;5.00;99.90;;;;;;5081944;28;20028;-60
2022/11/26 05:21:08;;;;;;;69.50;12.50;;;5.00;99.90;;;;;;5085132;28;20062;-61
2022/11/26 05:23:33;;;;;;;64.50;12.27;;;5.00;99.90;;;;;;5079574;28;20424;-60
2022/11/26 05:25:59;;;;;;;76.85;13.35;;;4.90;99.90;;;;;;5083095;28;20478;-60
2022/11/26 05:28:25;;;;;;;51.45;11.13;;;5.00;99.90;;;;;;5086863;28;20078;-60
2022/11/26 05:30:57;;;;;;;75.63;12.25;;;5.00;99.90;;;;;;5089482;28;20605;-61
2022/11/26 05:33:23;;;;;;;87.70;13.43;;;4.90;99.90;;;;;;5089762;28;20042;-61
2022/11/26 05:35:48;;;;;;;69.70;12.18;;;4.90;99.90;;;;;;5089818;28;20044;-61
2022/11/26 05:38:14;;;;;;;62.00;12.15;;;4.90;99.90;;;;;;5089333;28;20486;-61
2022/11/26 05:40:40;;;;;;;83.75;12.73;;;4.90;99.90;;;;;;5085980;28;20072;-61
2022/11/26 05:43:05;;;;;;;44.28;11.82;;;4.90;99.90;;;;;;5085394;28;20036;-59
2022/11/26 05:45:31;;;;;;;50.13;11.43;;;4.90;99.90;;;;;;5084431;28;20088;-61
2022/11/26 05:47:56;;;;;;;57.05;12.32;;;4.90;99.90;;;;;;5083082;28;20785;-60
2022/11/26 05:50:22;;;;;;;64.95;12.35;;;4.90;99.90;;;;;;5086387;28;20036;-60
2022/11/26 05:52:48;;;;;;;92.25;13.23;;;4.90;99.90;;;;;;5088751;28;20043;-60
2022/11/26 05:55:15;;;;;;;66.07;12.82;;;4.90;99.90;;;;;;5078999;28;20445;-61
2022/11/26 05:57:41;;;;;;;91.97;13.55;;;4.90;99.90;;;;;;5085268;28;20108;-61
2022/11/26 06:00:08;;;;;;;52.25;12.90;;;4.90;99.90;;;;;;5085576;28;20516;-61
2022/11/26 06:02:33;;;;;;;59.67;12.77;;;4.90;99.90;;;;;;5088695;28;20048;-60
2022/11/26 06:04:59;;;;;;;65.57;13.57;;;4.90;99.90;;;;;;5087650;28;20051;-60
2022/11/26 06:07:25;;;;;;;67.15;13.18;;;4.90;99.90;;;;;;5070344;28;20032;-60
2022/11/26 06:09:50;;;;;;;49.05;13.10;;;4.90;99.90;;;;;;5079672;28;20044;-60
2022/11/26 06:12:16;;;;;;;76.03;14.43;;;4.90;99.90;;;;;;5081838;28;20032;-61
2022/11/26 06:14:41;;;;;;;53.63;13.15;;;5.00;99.90;;;;;;5087432;28;20024;-61
2022/11/26 06:17:07;;;;;;;79.65;14.10;;;5.00;99.90;;;;;;5084937;28;20105;-61
2022/11/26 06:19:32;;;;;;;53.78;14.50;;;5.00;99.90;;;;;;5089912;28;20040;-60
2022/11/26 06:21:58;;;;;;;92.18;14.77;;;5.00;99.90;;;;;;5084328;28;20032;-61
2022/11/26 06:24:24;;;;;;;67.15;13.93;;;5.00;99.90;;;;;;5088367;28;20047;-60
2022/11/26 06:26:49;;;;;;;63.92;13.48;;;5.00;99.90;;;;;;5081575;28;20500;-60
2022/11/26 06:29:15;;;;;;;99.10;15.35;;;5.00;99.90;;;;;;5077661;28;20093;-61
2022/11/26 06:31:41;;;;;;;94.65;15.13;;;5.00;99.90;;;;;;5089385;28;20063;-61
2022/11/26 06:34:06;;;;;;;90.25;15.93;;;5.00;99.90;;;;;;5089896;28;20122;-61
2022/11/26 06:36:32;;;;;;;59.88;14.27;;;5.00;99.90;;;;;;5085176;28;20036;-60
2022/11/26 06:38:58;;;;;;;66.55;13.77;;;5.00;99.90;;;;;;5085095;28;20036;-60
2022/11/26 06:41:23;;;;;;;53.10;14.68;;;5.00;99.90;;;;;;5079172;28;20092;-61
2022/11/26 06:43:49;;;;;;;79.60;15.30;;;5.00;99.90;;;;;;5053603;28;20070;-59
2022/11/26 06:46:15;;;;;;;42.50;12.93;;;5.10;99.90;;;;;;5064556;28;20062;-60
2022/11/26 06:48:40;;;;;;;61.85;14.32;;;5.10;99.90;;;;;;5072091;28;20028;-59
2022/11/26 06:51:09;;;;;;;49.63;13.93;;;5.00;99.90;;;;;;5065766;28;20036;-60
2022/11/26 06:53:35;;;;;;;48.67;14.70;;;5.00;99.90;;;;;;5082458;28;20402;-61
2022/11/26 06:56:03;;;;;;;49.33;14.43;;;5.00;99.90;;;;;;5086233;28;20032;-60
2022/11/26 06:58:28;;;;;;;55.63;14.77;;;5.00;99.90;;;;;;5084478;28;20055;-60
2022/11/26 07:00:54;;;;;;;31.48;14.15;;;5.00;99.90;;;;;;5084010;28;20020;-60
2022/11/26 07:03:20;;;;;;;63.55;15.20;;;5.00;99.90;;;;;;5089608;28;20032;-61
2022/11/26 07:05:46;;;;;;;35.95;14.23;;;5.00;99.90;;;;;;5089926;28;20062;-61
2022/11/26 07:08:11;;;;;;;41.45;15.40;;;5.00;99.90;;;;;;5085627;28;20047;-60
2022/11/26 07:10:37;;;;;;;40.83;15.40;;;5.00;99.90;;;;;;5085350;28;20457;-59
2022/11/26 07:13:03;;;;;;;40.33;16.08;;;5.00;99.90;;;;;;5091710;28;20128;-59
2022/11/26 07:15:28;;;;;;;44.10;15.48;;;5.00;99.90;;;;;;5090443;28;20607;-59
2022/11/26 07:17:54;;;;;;;45.20;15.63;;;5.00;99.90;;;;;;5085175;28;20447;-61
2022/11/26 07:20:20;;;;;;;42.65;15.50;;;5.00;99.90;;;;;;5090306;28;20401;-60
2022/11/26 07:22:45;;;;;;;37.20;16.30;;;5.10;99.90;;;;;;5082659;28;20064;-60
2022/11/26 07:25:11;;;;;;;35.88;16.27;;;5.00;99.90;;;;;;5082797;28;20036;-60
2022/11/26 07:27:37;;;;;;;56.55;17.13;;;5.10;99.90;;;;;;5088507;28;20065;-60
2022/11/26 07:30:04;;;;;;;41.88;16.55;;;5.10;99.90;;;;;;5089432;28;20139;-60
2022/11/26 07:32:29;;;;;;;56.97;16.60;;;5.10;99.90;;;;;;5082038;28;20051;-60
2022/11/26 07:34:55;;;;;;;33.00;16.77;;;5.10;99.90;;;;;;5086475;28;20028;-60
2022/11/26 07:37:20;;;;;;;49.67;17.38;;;5.10;99.90;;;;;;5090962;28;20021;-61
2022/11/26 07:39:46;;;;;;;120.38;22.50;;;5.20;99.90;;;;;;5086092;28;20185;-61
2022/11/26 07:42:12;;;;;;;46.40;14.65;;;5.20;99.90;;;;;;5087059;28;20032;-60
2022/11/26 07:44:38;;;;;;;55.65;17.58;;;5.20;99.90;;;;;;5082710;28;20044;-59
2022/11/26 07:47:04;;;;;;;46.47;17.30;;;5.20;99.90;;;;;;5083763;28;20043;-60
2022/11/26 07:49:30;;;;;;;37.38;15.43;;;5.20;99.90;;;;;;5082745;28;20032;-60
2022/11/26 07:51:55;;;;;;;37.35;16.15;;;5.20;99.90;;;;;;5081535;28;20044;-61
2022/11/26 07:54:21;;;;;;;51.28;18.10;;;5.20;99.90;;;;;;5081499;28;20036;-61
2022/11/26 07:56:47;;;;;;;31.10;16.00;;;5.20;99.90;;;;;;5085142;28;20494;-60
2022/11/26 07:59:12;;;;;;;33.63;14.55;;;5.20;99.90;;;;;;5083975;28;20040;-61
2022/11/26 08:01:38;;;;;;;40.65;17.67;;;5.20;99.90;;;;;;5084125;28;20064;-60
2022/11/26 08:04:05;;;;;;;38.53;16.63;;;5.20;99.90;;;;;;5088593;28;20508;-60
2022/11/26 08:06:31;;;;;;;37.67;16.25;;;5.20;99.90;;;;;;5087638;28;20063;-59
2022/11/26 08:09:01;;;;;;;33.42;15.40;;;5.30;99.90;;;;;;5067011;28;20386;-61
2022/11/26 08:11:29;;;;;;;28.58;14.75;;;5.30;99.90;;;;;;5081319;28;20401;-58
2022/11/26 08:13:57;;;;;;;32.60;15.07;;;5.30;99.90;;;;;;5086109;28;20066;-60
2022/11/26 08:16:23;;;;;;;30.42;15.27;;;5.30;99.90;;;;;;5089579;28;20050;-59
2022/11/26 08:18:56;;;;;;;29.80;15.18;;;5.40;99.90;;;;;;5084175;28;20115;-60
2022/11/26 08:21:22;;;;;;;28.77;15.32;;;5.40;99.90;;;;;;5092087;28;20088;-60
2022/11/26 08:23:47;;;;;;;36.83;16.20;;;5.40;99.90;;;;;;5087108;28;20401;-60
2022/11/26 08:26:14;;;;;;;35.28;16.65;;;5.40;99.90;;;;;;5082144;28;20131;-59
2022/11/26 08:28:42;;;;;;;33.80;15.73;;;5.40;99.90;;;;;;5084442;28;20040;-61
2022/11/26 08:31:10;;;;;;;36.70;16.75;;;5.50;99.90;;;;;;5089620;28;20171;-60
2022/11/26 08:33:36;;;;;;;38.63;16.90;;;5.50;99.90;;;;;;5090446;28;20028;-59
2022/11/26 08:36:02;;;;;;;38.03;17.13;;;5.50;99.90;;;;;;5082614;28;20046;-60
2022/11/26 08:38:29;;;;;;;39.40;16.17;;;5.50;99.90;;;;;;5084768;28;20032;-59
2022/11/26 08:40:58;;;;;;;32.55;16.27;;;5.50;99.90;;;;;;5080504;28;20097;-60
2022/11/26 08:43:24;;;;;;;29.48;16.20;;;5.50;99.90;;;;;;5079805;28;20419;-61
2022/11/26 08:45:58;;;;;;;39.40;18.15;;;5.60;99.90;;;;;;5086308;28;20032;-60
2022/11/26 08:48:25;;;;;;;35.20;17.30;;;5.60;99.90;;;;;;5085261;28;20478;-61
2022/11/26 08:50:55;;;;;;;36.53;18.40;;;5.60;99.90;;;;;;5077815;28;20119;-59
2022/11/26 08:53:20;;;;;;;33.05;17.13;;;5.70;99.90;;;;;;5080838;28;20044;-60
2022/11/26 08:55:46;;;;;;;38.17;18.08;;;5.70;99.90;;;;;;5073590;28;20052;-61
2022/11/26 08:58:12;;;;;;;38.90;17.90;;;5.80;99.90;;;;;;5079950;28;20048;-60
2022/11/26 09:00:37;;;;;;;37.30;19.08;;;5.80;99.90;;;;;;5070270;28;20035;-60
2022/11/26 09:03:03;;;;;;;41.47;19.05;;;5.80;99.90;;;;;;5080837;28;20116;-60
2022/11/26 09:05:28;;;;;;;43.22;19.98;;;5.90;99.90;;;;;;5087138;28;20067;-61
2022/11/26 09:07:54;;;;;;;48.25;20.58;;;5.90;99.90;;;;;;5070444;28;20050;-61
2022/11/26 09:10:20;;;;;;;41.92;20.20;;;5.90;99.90;;;;;;5076552;28;20040;-60
2022/11/26 09:12:45;;;;;;;47.85;20.33;;;5.90;99.90;;;;;;5081094;28;20036;-59
2022/11/26 09:15:11;;;;;;;49.22;22.75;;;6.00;99.90;;;;;;5081195;28;20039;-60
2022/11/26 09:17:37;;;;;;;47.55;20.70;;;6.00;99.90;;;;;;5089501;28;20028;-61
2022/11/26 09:20:02;;;;;;;46.50;21.00;;;6.00;99.90;;;;;;5092187;28;20490;-59
2022/11/26 09:22:28;;;;;;;45.72;20.05;;;6.10;99.90;;;;;;5091347;28;20043;-60
2022/11/26 09:24:54;;;;;;;54.35;22.73;;;6.10;99.90;;;;;;5082720;28;20446;-59
2022/11/26 09:27:19;;;;;;;54.10;22.58;;;6.10;99.90;;;;;;5088252;28;20046;-60
2022/11/26 09:29:45;;;;;;;52.25;23.33;;;6.20;99.90;;;;;;5088201;28;20044;-61
2022/11/26 09:32:10;;;;;;;51.67;23.13;;;6.20;99.90;;;;;;5083468;28;20101;-60
2022/11/26 09:34:36;;;;;;;56.63;22.05;;;6.20;99.90;;;;;;5085014;28;20067;-59
2022/11/26 09:37:02;;;;;;;50.75;21.25;;;6.20;99.90;;;;;;5089704;28;20040;-59
2022/11/26 09:39:28;;;;;;;65.72;25.38;;;6.20;99.90;;;;;;5092164;28;20123;-61
2022/11/26 09:42:04;;;;;;;58.72;22.70;;;6.30;99.90;;;;;;5081592;28;20043;-60
2022/11/26 09:44:57;;;;;;;63.08;24.75;;;6.30;99.90;;;;;;5074540;28;20032;-61
2022/11/26 09:47:29;;;;;;;65.85;25.20;;;6.30;99.90;;;;;;5090794;28;20435;-60
2022/11/26 09:50:00;;;;;;;54.38;22.33;;;6.40;99.90;;;;;;5085571;28;20036;-60
2022/11/26 09:52:35;;;;;;;59.83;23.92;;;6.30;99.90;;;;;;5076178;28;20055;-60
2022/11/26 09:55:11;;;;;;;65.45;25.45;;;6.40;99.90;;;;;;5080780;28;20109;-60
2022/11/26 09:57:50;;;;;;;68.75;26.15;;;6.40;99.90;;;;;;5091137;28;20040;-59
2022/11/26 10:00:21;;;;;;;69.57;26.15;;;6.40;99.90;;;;;;5078042;28;20044;-60
2022/11/26 10:02:47;;;;;;;71.93;27.58;;;6.40;99.90;;;;;;5085265;28;20703;-61
2022/11/26 10:05:13;;;;;;;71.57;27.70;;;6.50;99.90;;;;;;5076862;28;20028;-60
2022/11/26 10:07:55;;;;;;;73.57;29.55;;;6.50;99.90;;;;;;5085190;28;20592;-61
2022/11/26 10:10:49;;;;;;;73.68;29.52;;;6.50;99.90;;;;;;5081553;28;20048;-59
2022/11/26 10:13:28;;;;;;;74.55;27.70;;;6.60;99.90;;;;;;5078344;28;20039;-60
2022/11/26 10:16:09;;;;;;;85.32;30.95;;;6.50;99.90;;;;;;5072717;22;20048;-61
2022/11/26 10:19:12;;;;;;;83.85;32.33;;;6.60;99.90;;;;;;5048453;28;20470;-61
2022/11/26 10:21:41;;;;;;;88.32;31.65;;;6.60;99.90;;;;;;5035978;28;20107;-61
2022/11/26 10:24:31;;;;;;;77.75;30.83;;;6.60;99.90;;;;;;5047806;28;20033;-61
2022/11/26 10:27:02;;;;;;;84.63;30.95;;;6.60;99.90;;;;;;5036949;28;20045;-61
2022/11/26 10:29:39;;;;;;;79.05;30.45;;;6.70;99.90;;;;;;5029244;28;20162;-61
2022/11/26 10:32:20;;;;;;;89.50;32.28;;;6.70;99.90;;;;;;5029994;28;20061;-61
2022/11/26 10:34:51;;;;;;;93.75;32.20;;;6.80;99.90;;;;;;5029546;28;20049;-61
2022/11/26 10:37:18;;;;;;;;;;;6.70;99.90;;;;;;5030459;28;20071;-61
2022/11/26 10:39:44;;;;;;;93.00;31.65;;;6.80;99.90;;;;;;5041485;28;20475;-61
2022/11/26 10:42:17;;;;;;;83.70;32.55;;;6.80;99.90;;;;;;5027715;28;20124;-61
2022/11/26 10:44:43;;;;;;;100.05;33.28;;;6.80;99.90;;;;;;5036464;28;20483;-61
2022/11/26 10:47:18;;;;;;;92.32;33.08;;;6.80;99.90;;;;;;5027678;28;20103;-61
2022/11/26 10:49:44;;;;;;;86.53;32.50;;;6.90;99.90;;;;;;5041547;28;20072;-61
2022/11/26 10:52:19;;;;;;;100.75;34.85;;;6.90;99.90;;;;;;5050538;28;20522;-61
2022/11/26 10:54:44;;;;;;;85.10;32.90;;;6.90;99.90;;;;;;5032580;28;20057;-61
2022/11/26 10:57:17;;;;;;;95.45;32.50;;;7.00;99.90;;;;;;5027244;28;20476;-61
2022/11/26 10:59:43;;;;;;;87.25;31.65;;;7.00;99.90;;;;;;5052463;28;20337;-61
2022/11/26 11:02:39;;;;;;;79.68;31.38;;;7.10;99.90;;;;;;5049067;28;20064;-61
2022/11/26 11:05:08;;;;;;;87.15;31.25;;;7.10;99.90;;;;;;5031398;28;20068;-61
2022/11/26 11:07:36;;;;;;;92.00;33.15;;;7.10;99.90;;;;;;5030549;28;20065;-61
2022/11/26 11:10:08;;;;;;;98.30;33.80;;;7.10;99.90;;;;;;5036443;28;20490;-61
2022/11/26 11:12:41;;;;;;;83.43;31.63;;;7.20;99.90;;;;;;5029141;28;20033;-61
2022/11/26 11:15:20;;;;;;;95.05;32.25;;;7.20;99.90;;;;;;5029456;28;20125;-61
2022/11/26 11:18:04;;;;;;;85.60;31.33;;;7.30;99.90;;;;;;5032011;28;20057;-61
2022/11/26 11:20:36;;;;;;;84.47;32.50;;;7.30;99.90;;;;;;5033394;28;20055;-61
2022/11/26 11:23:21;;;;;;;87.95;32.28;;;7.30;99.90;;;;;;5031754;28;20141;-61
2022/11/26 11:26:13;;;;;;;86.63;32.22;;;7.40;99.90;;;;;;5032760;28;20054;-61
2022/11/26 11:28:41;;;;;;;;;;;7.40;99.90;;;;;;5028204;28;20052;-61
2022/11/26 11:31:16;;;;;;;77.28;28.83;;;7.40;99.90;;;;;;5024248;28;19963;-62
2022/11/26 11:33:42;;;;;;;80.22;31.02;;;7.40;99.90;;;;;;5023522;28;20042;-61
2022/11/26 11:36:19;;;;;;;80.07;30.35;;;7.50;99.90;;;;;;5036625;28;20040;-61
2022/11/26 11:38:47;;;;;;;84.07;30.55;;;7.50;99.90;;;;;;5029045;28;20037;-61
2022/11/26 11:41:29;;;;;;;65.45;27.67;;;7.60;99.90;;;;;;5033574;28;20511;-61
2022/11/26 11:44:19;;;;;;;92.47;31.73;;;7.60;99.90;;;;;;5023849;28;20129;-61
2022/11/26 11:47:22;;;;;;;77.07;28.25;;;7.60;99.90;;;;;;5030896;28;20120;-61
2022/11/26 11:49:51;;;;;;;79.82;27.95;;;7.60;99.90;;;;;;5031708;28;20548;-61
2022/11/26 11:52:44;;;;;;;74.32;28.63;;;7.60;99.90;;;;;;5033381;28;20086;-61
2022/11/26 11:55:29;;;;;;;78.05;28.83;;;7.70;99.90;;;;;;5031954;28;20204;-61
2022/11/26 11:58:03;;;;;;;76.55;29.60;;;7.70;99.90;;;;;;5026354;28;20442;-61
2022/11/26 12:00:59;;;;;;;79.60;30.38;;;7.70;99.90;;;;;;5029181;28;20038;-61
2022/11/26 12:03:57;;;;;;;82.22;29.17;;;7.70;99.90;;;;;;5032235;28;20038;-61
2022/11/26 12:06:40;;;;;;;76.65;29.75;;;7.80;99.90;;;;;;5032553;28;20046;-61
2022/11/26 12:09:26;;;;;;;68.28;27.42;;;7.80;99.90;;;;;;5022281;28;20134;-61
2022/11/26 12:12:15;;;;;;;71.05;29.00;;;7.80;99.90;;;;;;5021631;28;20049;-61
2022/11/26 12:14:47;;;;;;;73.43;28.92;;;7.80;99.90;;;;;;5030316;28;20049;-61
2022/11/26 12:17:20;;;;;;;77.40;27.92;;;7.80;99.90;;;;;;5031314;28;20499;-61
2022/11/26 12:20:13;;;;;;;67.45;28.38;;;7.80;99.90;;;;;;5028968;28;20068;-61
2022/11/26 12:22:44;;;;;;;70.90;26.77;;;7.90;99.90;;;;;;5032771;28;20492;-61
2022/11/26 12:25:30;;;;;;;;;;;7.80;99.90;;;;;;5029591;28;20041;-61
2022/11/26 12:28:04;;;;;;;73.60;26.20;;;7.90;99.90;;;;;;5030497;28;19917;-61
2022/11/26 12:30:56;;;;;;;71.68;27.15;;;7.80;99.90;;;;;;5025197;28;20048;-61
2022/11/26 12:33:40;;;;;;;61.85;26.38;;;7.80;99.90;;;;;;5026371;28;20071;-61
2022/11/26 12:36:34;;;;;;;70.05;26.13;;;7.90;99.90;;;;;;5037583;28;20119;-61
2022/11/26 12:39:05;;;;;;;66.55;26.00;;;7.90;99.90;;;;;;5023682;28;20050;-61
2022/11/26 12:41:42;;;;;;;65.18;25.58;;;7.90;99.90;;;;;;5027960;28;20609;-61
2022/11/26 12:44:23;;;;;;;64.40;25.90;;;7.90;99.90;;;;;;5025402;28;20055;-60
2022/11/26 12:47:01;;;;;;;63.80;24.90;;;8.00;99.90;;;;;;5025172;28;20033;-61
2022/11/26 12:49:45;;;;;;;60.35;24.42;;;8.00;99.90;;;;;;5026707;28;20495;-61
2022/11/26 12:52:35;;;;;;;61.22;24.17;;;8.00;99.90;;;;;;5030764;28;20084;-61
2022/11/26 12:55:13;;;;;;;64.60;23.38;;;8.00;99.90;;;;;;5027855;28;20041;-61
2022/11/26 12:57:45;;;;;;;54.13;23.45;;;8.00;99.90;;;;;;5028056;28;20045;-61
2022/11/26 13:00:21;;;;;;;63.22;23.70;;;8.00;99.90;;;;;;5029399;28;20049;-61